createdAt,value
2022-09-09T00:30:54.637Z,96118.78
2022-09-09T00:33:22.011Z,96111.50
2022-09-09T00:35:48.880Z,96113.78
2022-09-09T00:38:15.722Z,96114.38
2022-09-09T00:40:42.489Z,96120.59
2022-09-09T00:43:09.069Z,96124.28
2022-09-09T00:45:36.366Z,96117.63
2022-09-09T00:48:02.875Z,96133.34
2022-09-09T00:50:29.720Z,96126.28
2022-09-09T00:52:58.648Z,96139.69
2022-09-09T00:55:25.448Z,96140.34
2022-09-09T01:00:33.610Z,96143.69
2022-09-09T01:03:00.275Z,96145.34
2022-09-09T01:05:26.768Z,96137.91
2022-09-09T01:07:58.457Z,96128.50
2022-09-09T01:10:26.804Z,96132.63
2022-09-09T01:12:53.547Z,96123.38
2022-09-09T01:15:20.356Z,96127.91
2022-09-09T01:17:47.168Z,96131.28
2022-09-09T01:20:14.145Z,96133.75
2022-09-09T01:22:41.001Z,96123.72
2022-09-09T01:25:08.303Z,96126.34
2022-09-09T01:27:35.382Z,96121.66
2022-09-09T01:30:02.731Z,96124.00
2022-09-09T01:32:29.996Z,96126.69
2022-09-09T01:34:58.771Z,96130.91
2022-09-09T01:37:25.618Z,96137.31
2022-09-09T01:39:52.912Z,96135.25
2022-09-09T01:42:19.847Z,96135.28
2022-09-09T01:44:46.331Z,96129.16
2022-09-09T01:47:15.984Z,96121.44
2022-09-09T01:49:43.270Z,96124.91
2022-09-09T01:52:10.119Z,96117.00
2022-09-09T01:54:36.646Z,96114.69
2022-09-09T01:57:03.943Z,96118.31
2022-09-09T01:59:30.767Z,96122.94
2022-09-09T02:01:58.038Z,96115.91
2022-09-09T02:04:26.303Z,96118.22
2022-09-09T02:06:53.093Z,96117.22
2022-09-09T02:09:19.904Z,96114.22
2022-09-09T02:11:46.733Z,96113.31
2022-09-09T02:14:13.517Z,96107.44
2022-09-09T02:16:40.370Z,96104.78
2022-09-09T02:19:07.425Z,96101.91
2022-09-09T02:21:36.521Z,96109.84
2022-09-09T02:24:03.662Z,96108.09
2022-09-09T02:26:30.511Z,96106.22
2022-09-09T02:28:58.037Z,96107.47
2022-09-09T02:31:24.596Z,96110.31
2022-09-09T02:33:53.183Z,96104.53
2022-09-09T02:36:27.154Z,96109.84
2022-09-09T02:38:53.925Z,96097.63
2022-09-09T02:41:21.417Z,96105.72
2022-09-09T02:43:48.658Z,96096.94
2022-09-09T02:46:16.099Z,96096.81
2022-09-09T02:48:43.026Z,96100.13
2022-09-09T02:51:09.756Z,96098.66
2022-09-09T02:53:36.942Z,96093.75
2022-09-09T02:56:03.804Z,96095.16
2022-09-09T02:58:31.104Z,96093.75
2022-09-09T03:00:57.847Z,96082.44
2022-09-09T03:03:31.903Z,96087.78
2022-09-09T03:05:58.717Z,96082.09
2022-09-09T03:08:32.576Z,96086.63
2022-09-09T03:10:59.643Z,96086.94
2022-09-09T03:13:26.154Z,96083.44
2022-09-09T03:15:53.923Z,96086.19
2022-09-09T03:18:20.473Z,96090.16
2022-09-09T03:20:47.743Z,96088.19
2022-09-09T03:23:15.899Z,96085.91
2022-09-09T03:25:43.502Z,96083.22
2022-09-09T03:28:10.110Z,96085.91
2022-09-09T03:30:44.155Z,96097.59
2022-09-09T03:33:11.180Z,96099.16
2022-09-09T03:35:40.353Z,96108.19
2022-09-09T03:38:07.843Z,96097.06
2022-09-09T03:40:34.454Z,96096.56
2022-09-09T03:43:03.018Z,96093.69
2022-09-09T03:45:37.275Z,96097.09
2022-09-09T03:48:06.379Z,96095.91
2022-09-09T03:50:35.972Z,96091.84
2022-09-09T03:53:10.015Z,96089.22
2022-09-09T03:55:39.060Z,96088.84
2022-09-09T03:58:13.210Z,96082.84
2022-09-09T04:00:47.256Z,96084.38
2022-09-09T04:03:15.398Z,96087.38
2022-09-09T04:05:42.376Z,96086.28
2022-09-09T04:08:09.183Z,96078.06
2022-09-09T04:10:37.085Z,96086.72
2022-09-09T04:13:03.962Z,96082.50
2022-09-09T04:15:31.535Z,96076.03
2022-09-09T04:17:58.167Z,96072.94
2022-09-09T04:20:25.493Z,96070.50
2022-09-09T04:22:52.214Z,96077.09
2022-09-09T04:25:20.255Z,96071.78
2022-09-09T04:27:47.863Z,96068.41
2022-09-09T04:30:14.456Z,96067.50
2022-09-09T04:32:42.138Z,96069.50
2022-09-09T04:35:08.838Z,96065.34
2022-09-09T04:37:35.532Z,96071.19
2022-09-09T04:40:02.170Z,96077.53
2022-09-09T04:42:29.331Z,96068.94
2022-09-09T04:44:58.004Z,96066.66
2022-09-09T04:47:24.587Z,96060.31
2022-09-09T04:49:55.534Z,96069.16
2022-09-09T04:52:22.010Z,96061.50
2022-09-09T04:54:48.997Z,96067.28
2022-09-09T04:57:18.756Z,96071.59
2022-09-09T04:59:45.483Z,96071.25
2022-09-09T05:02:12.286Z,96069.44
2022-09-09T05:04:39.004Z,96075.06
2022-09-09T05:07:06.281Z,96081.19
2022-09-09T05:09:35.095Z,96083.41
2022-09-09T05:12:01.727Z,96082.72
2022-09-09T05:14:28.407Z,96075.63
2022-09-09T05:16:55.020Z,96084.59
2022-09-09T05:19:21.857Z,96084.75
2022-09-09T05:21:48.476Z,96087.69
2022-09-09T05:24:15.110Z,96084.38
2022-09-09T05:26:41.836Z,96078.63
2022-09-09T05:29:08.621Z,96091.69
2022-09-09T05:31:37.727Z,96090.25
2022-09-09T05:34:05.865Z,96088.00
2022-09-09T05:36:32.668Z,96095.91
2022-09-09T05:39:02.528Z,96097.31
2022-09-09T05:41:30.388Z,96083.66
2022-09-09T05:43:57.562Z,96098.44
2022-09-09T05:46:25.072Z,96091.59
2022-09-09T05:48:51.694Z,96095.44
2022-09-09T05:51:19.056Z,96093.78
2022-09-09T05:53:45.574Z,96098.97
2022-09-09T05:56:12.248Z,96101.16
2022-09-09T05:58:39.610Z,96097.84
2022-09-09T06:01:06.184Z,96096.19
2022-09-09T06:03:33.953Z,96103.13
2022-09-09T06:06:00.784Z,96106.94
2022-09-09T06:11:09.442Z,96103.53
2022-09-09T06:13:36.787Z,96111.03
2022-09-09T06:18:45.011Z,96108.03
2022-09-09T06:21:22.585Z,96109.78
2022-09-09T06:23:58.965Z,96119.22
2022-09-09T06:26:27.639Z,96115.00
2022-09-09T06:28:54.439Z,96118.34
2022-09-09T06:31:22.859Z,96119.38
2022-09-09T06:33:56.647Z,96116.63
2022-09-09T06:36:25.825Z,96119.25
2022-09-09T06:38:53.243Z,96122.78
2022-09-09T06:41:20.374Z,96128.25
2022-09-09T06:43:51.121Z,96124.09
2022-09-09T06:46:18.027Z,96133.81
2022-09-09T06:48:45.419Z,96132.38
2022-09-09T06:51:14.636Z,96132.03
2022-09-09T06:53:43.021Z,96125.38
2022-09-09T06:59:05.187Z,96130.81
2022-09-09T07:01:32.671Z,96121.69
2022-09-09T07:04:00.896Z,96130.00
2022-09-09T07:06:29.229Z,96131.19
2022-09-09T07:08:56.746Z,96131.03
2022-09-09T07:11:26.946Z,96134.47
2022-09-09T07:13:53.591Z,96129.38
2022-09-09T07:16:22.603Z,96132.28
2022-09-09T07:18:51.200Z,96133.94
2022-09-09T07:21:17.925Z,96134.31
2022-09-09T07:23:46.699Z,96129.47
2022-09-09T07:26:13.319Z,96135.06
2022-09-09T07:28:41.845Z,96135.59
2022-09-09T07:31:08.698Z,96134.50
2022-09-09T07:33:35.389Z,96128.47
2022-09-09T07:36:02.241Z,96142.25
2022-09-09T07:38:31.965Z,96139.56
2022-09-09T07:40:58.432Z,96145.94
2022-09-09T07:43:24.948Z,96138.13
2022-09-09T07:45:51.794Z,96139.66
2022-09-09T07:48:18.356Z,96153.69
2022-09-09T07:50:44.969Z,96145.81
2022-09-09T07:53:13.517Z,96155.41
2022-09-09T07:55:40.649Z,96155.06
2022-09-09T07:58:09.507Z,96160.53
2022-09-09T08:00:36.311Z,96162.81
2022-09-09T08:03:02.880Z,96167.28
2022-09-09T08:05:29.836Z,96170.06
2022-09-09T08:07:56.393Z,96168.56
2022-09-09T08:10:23.352Z,96169.56
2022-09-09T08:13:07.754Z,96172.94
2022-09-09T08:15:37.192Z,96185.84
2022-09-09T08:18:07.348Z,96177.69
2022-09-09T08:20:34.433Z,96182.03
2022-09-09T08:23:01.326Z,96178.00
2022-09-09T08:25:31.440Z,96167.75
2022-09-09T08:27:59.083Z,96183.81
2022-09-09T08:30:27.404Z,96171.84
2022-09-09T08:32:54.171Z,96179.88
2022-09-09T08:35:20.829Z,96180.22
2022-09-09T08:37:51.532Z,96179.72
2022-09-09T08:40:19.299Z,96187.94
2022-09-09T08:42:46.228Z,96186.03
2022-09-09T08:45:13.154Z,96193.16
2022-09-09T08:47:42.215Z,96190.31
2022-09-09T08:50:09.723Z,96199.16
2022-09-09T08:52:36.553Z,96199.66
2022-09-09T08:55:04.271Z,96198.91
2022-09-09T08:57:31.115Z,96195.91
2022-09-09T08:59:58.405Z,96199.66
2022-09-09T09:02:25.304Z,96199.38
2022-09-09T09:04:53.211Z,96202.03
2022-09-09T09:07:24.662Z,96206.31
2022-09-09T09:09:53.516Z,96203.53
2022-09-09T09:12:20.459Z,96210.09
2022-09-09T09:14:57.391Z,96201.06
2022-09-09T09:20:36.473Z,96188.13
2022-09-09T09:23:03.209Z,96199.81
2022-09-09T09:25:29.988Z,96203.75
2022-09-09T09:27:56.776Z,96195.84
2022-09-09T09:30:29.490Z,96189.88
2022-09-09T09:32:57.141Z,96196.06
2022-09-09T09:35:25.728Z,96193.25
2022-09-09T09:40:41.655Z,96197.41
2022-09-09T09:43:11.975Z,96191.25
2022-09-09T09:45:38.594Z,96197.81
2022-09-09T09:48:07.474Z,96206.00
2022-09-09T09:50:37.093Z,96198.16
2022-09-09T09:53:03.791Z,96195.00
2022-09-09T09:55:31.355Z,96182.66
2022-09-09T09:57:58.816Z,96196.06
2022-09-09T10:00:29.199Z,96192.69
2022-09-09T10:02:55.800Z,96195.66
2022-09-09T10:05:27.142Z,96193.81
2022-09-09T10:07:54.399Z,96193.13
2022-09-09T10:10:23.765Z,96189.25
2022-09-09T10:12:50.541Z,96194.72
2022-09-09T10:15:17.469Z,96187.88
2022-09-09T10:17:44.924Z,96197.94
2022-09-09T10:20:14.983Z,96197.50
2022-09-09T10:22:49.703Z,96188.38
2022-09-09T10:25:16.673Z,96193.97
2022-09-09T10:27:43.275Z,96185.63
2022-09-09T10:30:12.179Z,96185.91
2022-09-09T10:32:38.682Z,96188.53
2022-09-09T10:35:06.652Z,96189.81
2022-09-09T10:37:33.218Z,96174.75
2022-09-09T10:40:00.218Z,96181.69
2022-09-09T10:42:27.119Z,96188.53
2022-09-09T10:44:53.741Z,96186.84
2022-09-09T10:47:21.290Z,96183.94
2022-09-09T10:49:49.478Z,96179.91
2022-09-09T10:52:17.857Z,96177.41
2022-09-09T10:54:44.851Z,96175.50
2022-09-09T10:57:14.153Z,96172.06
2022-09-09T10:59:40.988Z,96172.03
2022-09-09T11:02:08.827Z,96172.78
2022-09-09T11:04:36.292Z,96179.22
2022-09-09T11:07:02.986Z,96172.47
2022-09-09T11:09:31.689Z,96165.16
2022-09-09T11:11:58.441Z,96170.28
2022-09-09T11:17:09.358Z,96183.41
2022-09-09T11:19:42.436Z,96180.28
2022-09-09T11:22:09.170Z,96162.50
2022-09-09T11:24:37.786Z,96174.22
2022-09-09T11:27:04.503Z,96173.47
2022-09-09T11:29:33.585Z,96167.09
2022-09-09T11:32:00.421Z,96167.38
2022-09-09T11:34:30.404Z,96160.03
2022-09-09T11:37:00.299Z,96173.69
2022-09-09T11:39:26.851Z,96162.47
2022-09-09T11:41:56.449Z,96172.50
2022-09-09T11:44:23.331Z,96170.31
2022-09-09T11:46:50.718Z,96167.41
2022-09-09T11:49:18.359Z,96173.75
2022-09-09T11:51:45.066Z,96176.41
2022-09-09T11:54:12.667Z,96171.75
2022-09-09T11:56:47.604Z,96177.84
2022-09-09T11:59:16.336Z,96189.31
2022-09-09T12:01:45.109Z,96188.09
2022-09-09T12:04:12.760Z,96192.28
2022-09-09T12:06:39.391Z,96196.16
2022-09-09T12:09:06.094Z,96189.28
2022-09-09T12:11:33.530Z,96185.53
2022-09-09T12:14:00.495Z,96189.72
2022-09-09T12:16:33.016Z,96178.91
2022-09-09T12:19:02.263Z,96190.22
2022-09-09T12:21:29.511Z,96187.88
2022-09-09T12:23:57.289Z,96182.44
2022-09-09T12:26:24.638Z,96179.69
2022-09-09T12:28:53.831Z,96185.88
2022-09-09T12:31:21.002Z,96186.59
2022-09-09T12:33:48.953Z,96191.72
2022-09-09T12:36:15.480Z,96181.19
2022-09-09T12:38:42.356Z,96185.84
2022-09-09T12:41:11.611Z,96181.66
2022-09-09T12:43:38.481Z,96191.91
2022-09-09T12:46:10.213Z,96183.47
2022-09-09T12:48:37.739Z,96172.41
2022-09-09T12:51:04.825Z,96181.50
2022-09-09T12:53:31.899Z,96178.41
2022-09-09T12:55:59.755Z,96171.94
2022-09-09T12:58:26.351Z,96166.78
2022-09-09T13:00:55.200Z,96168.31
2022-09-09T13:03:24.496Z,96156.91
2022-09-09T13:05:52.061Z,96167.84
2022-09-09T13:08:19.007Z,96162.97
2022-09-09T13:10:55.452Z,96176.16
2022-09-09T13:13:25.429Z,96158.13
2022-09-09T13:15:52.168Z,96160.78
2022-09-09T13:18:19.828Z,96158.50
2022-09-09T13:20:56.095Z,96157.00
2022-09-09T13:23:25.963Z,96149.78
2022-09-09T13:25:52.841Z,96152.53
2022-09-09T13:28:19.648Z,96159.31
2022-09-09T13:30:48.357Z,96150.09
2022-09-09T13:33:15.509Z,96142.31
2022-09-09T13:35:44.120Z,96141.84
2022-09-09T13:38:11.041Z,96137.75
2022-09-09T13:40:37.860Z,96140.31
2022-09-09T13:43:04.401Z,96134.91
2022-09-09T13:45:31.099Z,96136.00
2022-09-09T13:48:00.060Z,96137.44
2022-09-09T13:50:28.932Z,96138.47
2022-09-09T13:52:55.677Z,96130.16
2022-09-09T13:55:22.281Z,96127.19
2022-09-09T13:57:49.173Z,96124.06
2022-09-09T14:00:16.051Z,96129.06
2022-09-09T14:02:42.675Z,96121.88
2022-09-09T14:05:10.420Z,96122.91
2022-09-09T14:07:37.153Z,96121.19
2022-09-09T14:10:06.753Z,96112.06
2022-09-09T14:12:35.672Z,96117.66
2022-09-09T14:15:02.573Z,96130.31
2022-09-09T14:17:29.449Z,96121.06
2022-09-09T14:19:57.254Z,96123.81
2022-09-09T14:22:23.979Z,96122.69
2022-09-09T14:24:50.651Z,96121.69
2022-09-09T14:27:17.885Z,96120.81
2022-09-09T14:29:44.782Z,96129.78
2022-09-09T14:32:12.827Z,96123.63
2022-09-09T14:34:39.851Z,96115.88
2022-09-09T14:37:07.024Z,96120.38
2022-09-09T14:39:33.541Z,96110.47
2022-09-09T14:42:01.435Z,96119.75
2022-09-09T14:44:28.262Z,96125.84
2022-09-09T14:46:55.548Z,96117.91
2022-09-09T14:49:22.321Z,96122.50
2022-09-09T14:51:55.805Z,96118.56
2022-09-09T14:54:25.929Z,96117.16
2022-09-09T14:56:52.501Z,96123.69
2022-09-09T14:59:27.183Z,96126.03
2022-09-09T15:01:57.486Z,96129.50
2022-09-09T15:04:27.610Z,96134.31
2022-09-09T15:06:57.120Z,96137.53
2022-09-09T15:09:23.612Z,96134.94
2022-09-09T15:11:50.868Z,96131.25
2022-09-09T15:14:21.016Z,96140.19
2022-09-09T15:16:54.734Z,96133.16
2022-09-09T15:19:34.575Z,96131.94
2022-09-09T15:22:04.714Z,96137.75
2022-09-09T15:24:32.565Z,96142.19
2022-09-09T15:27:14.051Z,96144.91
2022-09-09T15:29:47.758Z,96160.16
2022-09-09T15:32:27.310Z,96154.34
2022-09-09T15:34:56.977Z,96164.94
2022-09-09T15:37:24.151Z,96159.25
2022-09-09T15:39:54.781Z,96164.19
2022-09-09T15:42:21.856Z,96160.28
2022-09-09T15:44:51.521Z,96149.34
2022-09-09T15:50:16.783Z,96151.50
2022-09-09T15:52:45.276Z,96146.41
2022-09-09T15:55:11.924Z,96145.91
2022-09-09T15:57:38.871Z,96150.03
2022-09-09T16:02:53.183Z,96143.56
2022-09-09T16:05:19.773Z,96142.69
2022-09-09T16:10:33.057Z,96149.94
2022-09-09T16:13:00.108Z,96136.41
2022-09-09T16:15:29.312Z,96131.25
2022-09-09T16:17:56.208Z,96136.81
2022-09-09T16:20:22.841Z,96139.56
2022-09-09T16:22:52.061Z,96139.06
2022-09-09T16:25:18.782Z,96143.19
2022-09-09T16:27:46.212Z,96131.88
2022-09-09T16:30:15.301Z,96137.53
2022-09-09T16:32:41.965Z,96135.09
2022-09-09T16:35:09.448Z,96132.00
2022-09-09T16:37:36.413Z,96130.75
2022-09-09T16:40:04.347Z,96139.28
2022-09-09T16:42:31.151Z,96136.19
2022-09-09T16:45:00.500Z,96141.28
2022-09-09T16:47:27.146Z,96133.94
2022-09-09T16:52:51.428Z,96128.84
2022-09-09T16:55:19.011Z,96135.19
2022-09-09T16:57:46.049Z,96138.38
2022-09-09T17:00:13.491Z,96146.41
2022-09-09T17:02:40.206Z,96140.31
2022-09-09T17:08:21.715Z,96141.78
2022-09-09T17:10:57.819Z,96145.91
2022-09-09T17:13:25.635Z,96157.13
2022-09-09T17:15:58.666Z,96150.56
2022-09-09T17:18:29.065Z,96145.41
2022-09-09T17:20:56.139Z,96156.16
2022-09-09T17:23:22.910Z,96156.63
2022-09-09T17:31:56.005Z,96157.31
2022-09-09T17:35:08.331Z,96164.56
2022-09-09T17:37:34.831Z,96163.44
2022-09-09T17:40:03.918Z,96159.31
2022-09-09T17:42:31.312Z,96164.91
2022-09-09T17:44:57.808Z,96168.34
2022-09-09T17:47:27.374Z,96161.53
2022-09-09T17:49:53.808Z,96159.09
2022-09-09T17:52:21.299Z,96157.63
2022-09-09T17:54:48.131Z,96173.50
2022-09-09T18:00:15.919Z,96185.44
2022-09-09T18:02:42.493Z,96187.38
2022-09-09T18:05:09.414Z,96183.94
2022-09-09T18:07:38.659Z,96187.63
2022-09-09T18:10:05.411Z,96195.41
2022-09-09T18:12:32.215Z,96209.72
2022-09-09T18:15:03.956Z,96214.25
2022-09-09T18:17:33.551Z,96219.72
2022-09-09T18:20:00.269Z,96231.09
2022-09-09T18:28:30.022Z,96298.34
2022-09-09T18:30:57.006Z,96320.50
2022-09-09T18:33:23.631Z,96341.78
2022-09-09T18:35:50.528Z,96358.06
2022-09-09T18:38:19.620Z,96370.03
2022-09-09T18:40:46.861Z,96382.25
2022-09-09T18:43:13.608Z,96384.91
2022-09-09T18:45:41.263Z,96393.03
2022-09-09T18:48:09.779Z,96400.63
2022-09-09T18:59:24.445Z,96405.94
2022-09-09T19:04:54.710Z,96399.34
2022-09-09T19:07:21.323Z,96395.22
2022-09-09T19:16:17.188Z,96418.53
2022-09-09T19:18:48.264Z,96424.41
2022-09-09T19:21:16.099Z,96434.38
2022-09-09T19:23:45.455Z,96433.25
2022-09-09T19:26:12.489Z,96442.56
2022-09-09T22:37:35.399Z,96433.13
2022-09-09T22:40:02.266Z,96436.34
2022-09-09T22:42:31.476Z,96437.38
2022-09-09T22:44:58.244Z,96436.72
2022-09-09T22:47:25.105Z,96432.91
2022-09-09T22:49:52.487Z,96432.44
2022-09-09T22:52:21.183Z,96426.72
2022-09-09T22:54:48.559Z,96424.94
2022-09-09T22:57:15.249Z,96417.50
2022-09-09T22:59:42.004Z,96427.75
2022-09-09T23:02:08.848Z,96427.44
2022-09-09T23:04:35.601Z,96425.50
2022-09-09T23:07:02.408Z,96431.66
2022-09-09T23:09:29.047Z,96430.69
2022-09-09T23:11:57.677Z,96425.13
2022-09-09T23:14:24.187Z,96426.47
2022-09-09T23:16:51.052Z,96422.97
2022-09-09T23:19:17.650Z,96413.31
2022-09-09T23:21:46.580Z,96412.06
2022-09-09T23:24:14.131Z,96419.69
2022-09-09T23:26:40.848Z,96416.50
2022-09-09T23:29:09.965Z,96421.16
2022-09-09T23:31:37.658Z,96424.44
2022-09-09T23:34:04.640Z,96415.28
2022-09-09T23:36:31.598Z,96421.59
2022-09-09T23:38:58.305Z,96424.69
2022-09-09T23:41:25.136Z,96428.69
2022-09-09T23:43:51.704Z,96426.84
2022-09-09T23:46:18.608Z,96413.34
2022-09-09T23:48:45.243Z,96423.00
2022-09-09T23:51:11.824Z,96418.56
2022-09-09T23:53:40.930Z,96419.94
2022-09-09T23:56:07.689Z,96428.19
2022-09-09T23:58:36.362Z,96428.81
